Time;durP1;ratioP1;P1;durP2;ratioP2;P2;SDS_P1;SDS_P2;PMS_P1;PMS_P2;Temp;Humidity;BMP_temperature;BMP_pressure;BME280_temperature;BME280_humidity;BME280_pressure;Samples;Min_cycle;Max_cycle;Signal;HPM_P1;HPM_P2
2023/01/11 00:01:02;;;;;;;44.33;8.10;;;8.20;99.90;;;;;;5040891;27;20493;-61
2023/01/11 00:03:29;;;;;;;43.90;7.40;;;10.00;99.90;;;;;;5030685;27;20487;-61
2023/01/11 00:05:57;;;;;;;29.90;5.97;;;8.30;99.90;;;;;;5054456;28;20488;-60
2023/01/11 00:08:24;;;;;;;47.10;8.43;;;8.30;99.90;;;;;;5055189;28;20529;-61
2023/01/11 00:10:51;;;;;;;41.10;8.63;;;10.10;99.90;;;;;;5057072;28;20991;-61
2023/01/11 00:13:18;;;;;;;53.50;8.87;;;8.30;99.90;;;;;;5082910;27;20569;-61
2023/01/11 00:15:45;;;;;;;35.33;8.63;;;8.20;99.90;;;;;;5064644;28;20521;-61
2023/01/11 00:18:13;;;;;;;68.70;12.10;;;8.30;99.90;;;;;;5079014;28;20483;-61
2023/01/11 00:20:41;;;;;;;67.37;11.53;;;8.20;99.90;;;;;;5072745;28;20476;-61
2023/01/11 00:23:08;;;;;;;37.53;7.20;;;;;;;;;;5051341;28;20491;-61
2023/01/11 00:25:35;;;;;;;34.97;7.13;;;;;;;;;;5052473;28;20845;-61
2023/01/11 00:28:02;;;;;;;32.50;7.67;;;8.30;99.90;;;;;;5039038;28;20541;-61
2023/01/11 00:30:29;;;;;;;42.13;10.30;;;8.30;99.90;;;;;;5077062;27;20481;-61
2023/01/11 00:32:56;;;;;;;26.67;7.87;;;8.30;99.90;;;;;;5066196;28;20479;-61
2023/01/11 00:35:24;;;;;;;33.20;7.10;;;8.30;99.90;;;;;;5037139;28;20479;-61
2023/01/11 00:37:52;;;;;;;21.40;5.93;;;;;;;;;;5076591;28;20479;-61
2023/01/11 00:40:19;;;;;;;37.80;7.90;;;8.30;99.90;;;;;;5036718;28;21415;-61
2023/01/11 00:48:14;;;;;;;43.20;10.70;;;8.30;99.90;;;;;;5043190;28;20871;-62
2023/01/11 00:50:42;;;;;;;48.60;10.20;;;8.30;99.90;;;;;;5032435;28;20492;-62
2023/01/11 00:53:10;;;;;;;51.57;12.10;;;;;;;;;;5070772;28;20499;-61
2023/01/11 00:55:37;;;;;;;35.17;6.90;;;8.30;99.90;;;;;;5065313;28;20495;-62
2023/01/11 00:58:04;;;;;;;33.10;9.97;;;8.20;99.90;;;;;;5032768;28;20482;-61
2023/01/11 01:00:31;;;;;;;29.77;7.17;;;;;;;;;;5069405;28;20481;-61
2023/01/11 01:02:58;;;;;;;23.63;6.13;;;;;;;;;;5066599;28;20481;-60
2023/01/11 01:05:25;;;;;;;33.63;7.47;;;8.40;99.90;;;;;;5060234;28;20487;-60
2023/01/11 01:07:53;;;;;;;26.87;6.63;;;8.40;99.90;;;;;;5048803;28;20480;-60
2023/01/11 01:10:20;;;;;;;63.03;9.40;;;8.40;99.90;;;;;;5063142;28;21005;-61
2023/01/11 01:15:32;;;;;;;65.23;12.43;;;;;;;;;;5044007;28;20559;-61
2023/01/11 01:17:59;;;;;;;57.20;8.90;;;8.60;99.90;;;;;;5059563;28;20915;-61
2023/01/11 01:20:26;;;;;;;43.77;8.23;;;;;;;;;;5055252;28;20481;-62
2023/01/11 01:22:54;;;;;;;35.93;6.87;;;8.60;99.90;;;;;;5057525;28;20492;-61
2023/01/11 01:25:21;;;;;;;82.33;12.17;;;;;;;;;;5073369;28;20482;-60
2023/01/11 01:27:48;;;;;;;37.97;7.03;;;;;;;;;;5065407;28;20880;-60
2023/01/11 01:30:15;;;;;;;77.07;11.17;;;;;;;;;;5047390;28;20479;-61
2023/01/11 01:32:42;;;;;;;44.77;8.90;;;8.70;99.90;;;;;;5055633;27;20478;-60
2023/01/11 01:35:10;;;;;;;84.73;14.03;;;8.70;99.90;;;;;;5049210;27;20861;-61
2023/01/11 01:37:37;;;;;;;59.87;9.27;;;;;;;;;;5079417;28;20480;-61
2023/01/11 01:40:07;;;;;;;41.53;8.20;;;8.80;99.90;;;;;;5076587;28;20531;-61
2023/01/11 01:42:34;;;;;;;35.20;6.30;;;;;;;;;;5044253;28;21025;-60
2023/01/11 01:45:02;;;;;;;38.20;7.57;;;;;;;;;;5049772;28;20472;-61
2023/01/11 01:47:37;;;;;;;28.50;6.13;;;8.80;99.90;;;;;;5061745;28;20473;-61
2023/01/11 01:50:09;;;;;;;39.97;7.97;;;8.80;99.90;;;;;;5058088;28;20485;-60
2023/01/11 01:52:36;;;;;;;36.27;8.47;;;8.80;99.90;;;;;;5067973;28;20481;-61
2023/01/11 01:55:06;;;;;;;30.97;8.03;;;;;;;;;;5052915;28;20517;-61
2023/01/11 01:57:37;;;;;;;40.40;6.80;;;;;;;;;;5029378;28;21021;-60
2023/01/11 02:00:07;;;;;;;51.57;8.90;;;;;;;;;;5052968;28;21179;-61
2023/01/11 02:02:35;;;;;;;65.97;9.53;;;;;;;;;;5050661;28;20487;-60
2023/01/11 02:05:02;;;;;;;57.27;9.10;;;;;;;;;;5063108;27;20492;-61
2023/01/11 02:07:33;;;;;;;63.90;9.70;;;8.90;99.90;;;;;;5082048;28;20488;-61
2023/01/11 02:10:05;;;;;;;41.37;6.90;;;8.90;99.90;;;;;;5077817;28;20727;-61
2023/01/11 02:12:37;;;;;;;47.30;8.40;;;8.90;99.90;;;;;;5050306;28;20573;-62
2023/01/11 02:15:04;;;;;;;37.30;8.13;;;8.90;99.90;;;;;;5038721;28;20487;-61
2023/01/11 02:17:31;;;;;;;30.57;7.50;;;8.90;99.90;;;;;;5077324;28;20856;-61
2023/01/11 02:20:12;;;;;;;29.03;7.60;;;9.00;99.90;;;;;;5073255;27;20668;-61
2023/01/11 02:22:54;;;;;;;27.13;6.23;;;;;;;;;;5073746;28;20569;-61
2023/01/11 02:25:32;;;;;;;72.27;9.70;;;;;;;;;;5062422;28;20477;-61
2023/01/11 02:28:10;;;;;;;32.17;7.40;;;8.90;99.90;;;;;;5058429;28;20482;-61
2023/01/11 02:30:44;;;;;;;83.57;12.80;;;9.10;99.90;;;;;;5040706;28;20487;-61
2023/01/11 02:33:21;;;;;;;117.77;13.67;;;9.00;99.90;;;;;;5075440;28;20461;-61
2023/01/11 02:35:59;;;;;;;37.83;5.67;;;9.20;99.90;;;;;;5061661;27;20492;-61
2023/01/11 02:38:29;;;;;;;31.63;7.13;;;9.10;99.90;;;;;;5067703;27;20472;-61
2023/01/11 02:41:03;;;;;;;41.53;9.33;;;9.30;99.90;;;;;;5059445;28;21001;-61
2023/01/11 02:46:29;;;;;;;59.07;9.70;;;9.30;99.90;;;;;;5050928;28;20498;-61
2023/01/11 02:48:59;;;;;;;55.40;7.80;;;;;;;;;;5049737;28;20475;-61
2023/01/11 02:51:33;;;;;;;44.97;6.40;;;9.40;99.90;;;;;;5055358;28;20475;-61
2023/01/11 02:54:04;;;;;;;74.07;11.47;;;9.20;99.90;;;;;;5045335;28;20548;-61
2023/01/11 02:56:35;;;;;;;49.87;7.40;;;9.40;99.90;;;;;;5081316;28;20498;-61
2023/01/11 02:59:07;;;;;;;62.70;8.50;;;9.30;99.90;;;;;;5047332;28;20483;-61
2023/01/11 03:01:44;;;;;;;34.33;9.40;;;9.30;99.90;;;;;;5073120;28;20491;-61
2023/01/11 03:04:22;;;;;;;46.13;10.70;;;9.40;99.90;;;;;;5063049;28;20614;-61
2023/01/11 03:06:51;;;;;;;26.50;5.20;;;9.30;99.90;;;;;;5044297;28;20485;-61
2023/01/11 03:09:24;;;;;;;57.83;12.07;;;9.00;99.90;;;;;;5054437;28;20491;-61
2023/01/11 03:15:08;;;;;;;44.07;6.97;;;9.20;99.90;;;;;;5054084;28;20482;-61
2023/01/11 03:17:45;;;;;;;25.93;5.83;;;9.10;99.90;;;;;;5060480;27;21111;-62
2023/01/11 03:20:18;;;;;;;44.87;9.50;;;9.10;99.90;;;;;;5072923;28;20478;-61
2023/01/11 03:22:59;;;;;;;40.60;7.37;;;9.10;99.90;;;;;;5065374;28;20480;-62
2023/01/11 03:25:34;;;;;;;73.07;9.30;;;9.00;99.90;;;;;;5058599;28;20486;-62
2023/01/11 03:28:03;;;;;;;69.47;9.80;;;;;;;;;;5039706;28;20481;-61
2023/01/11 03:30:35;;;;;;;82.27;10.70;;;9.00;99.90;;;;;;5076394;28;20495;-61
2023/01/11 03:33:06;;;;;;;40.87;7.53;;;9.10;99.90;;;;;;5053971;28;20486;-62
2023/01/11 03:35:38;;;;;;;110.03;11.80;;;;;;;;;;5063918;28;20998;-61
2023/01/11 03:38:07;;;;;;;54.40;7.07;;;;;;;;;;5060812;28;20554;-62
2023/01/11 03:40:37;;;;;;;68.37;10.80;;;9.20;99.90;;;;;;5055473;28;20476;-62
2023/01/11 03:43:12;;;;;;;42.83;7.10;;;;;;;;;;5057928;28;20658;-62
2023/01/11 03:45:45;;;;;;;46.33;6.80;;;9.30;99.90;;;;;;5075629;28;21388;-62
2023/01/11 03:48:15;;;;;;;36.67;7.00;;;5.20;99.90;;;;;;5058846;28;20479;-62
2023/01/11 03:50:42;;;;;;;67.60;11.20;;;9.10;99.90;;;;;;5055755;28;20479;-61
2023/01/11 03:53:11;;;;;;;76.73;9.97;;;8.00;99.90;;;;;;5058151;28;20491;-61
2023/01/11 03:55:42;;;;;;;59.60;8.03;;;9.10;99.90;;;;;;5056482;28;20483;-62
2023/01/11 03:58:09;;;;;;;57.10;7.57;;;;;;;;;;5059893;28;20485;-62
2023/01/11 04:00:37;;;;;;;105.40;13.50;;;;;;;;;;5053611;28;20860;-61
2023/01/11 04:03:05;;;;;;;64.73;9.53;;;;;;;;;;5047017;28;20832;-61
2023/01/11 04:05:34;;;;;;;40.03;6.00;;;9.20;99.90;;;;;;5066167;28;20473;-61
2023/01/11 04:08:00;;;;;;;26.93;4.83;;;9.20;99.90;;;;;;5044555;28;20500;-61
2023/01/11 04:10:27;;;;;;;59.43;9.80;;;;;;;;;;5073280;28;20576;-61
2023/01/11 04:12:54;;;;;;;28.90;6.00;;;9.10;99.90;;;;;;5050334;28;20984;-61
2023/01/11 04:15:21;;;;;;;48.60;10.20;;;9.10;99.90;;;;;;5057499;28;20484;-60
2023/01/11 04:17:48;;;;;;;22.43;6.17;;;;;;;;;;5064086;28;20538;-62
2023/01/11 04:20:16;;;;;;;35.33;8.23;;;9.20;99.90;;;;;;5062776;28;20562;-61
2023/01/11 04:22:43;;;;;;;18.47;6.30;;;;;;;;;;5060161;28;20501;-61
2023/01/11 04:25:10;;;;;;;29.20;7.90;;;9.20;99.90;;;;;;5072898;28;20466;-61
2023/01/11 04:27:37;;;;;;;20.00;4.40;;;9.30;99.90;;;;;;5061818;28;20489;-61
2023/01/11 04:30:04;;;;;;;17.27;4.80;;;9.30;99.90;;;;;;5066435;28;20690;-61
2023/01/11 04:32:31;;;;;;;26.83;5.83;;;9.30;99.90;;;;;;5032608;28;20846;-62
2023/01/11 04:34:57;;;;;;;22.40;4.23;;;9.40;99.90;;;;;;5058723;28;20474;-61
2023/01/11 04:37:25;;;;;;;37.53;7.87;;;9.30;99.90;;;;;;5051726;28;20470;-61
2023/01/11 04:39:52;;;;;;;21.53;4.70;;;;;;;;;;5018731;28;20491;-61
2023/01/11 04:42:18;;;;;;;40.30;9.40;;;9.50;99.90;;;;;;5057600;28;20471;-60
2023/01/11 04:44:46;;;;;;;23.27;4.90;;;9.50;99.90;;;;;;5051237;28;21003;-60
2023/01/11 04:47:13;;;;;;;40.90;8.77;;;9.60;99.90;;;;;;5047269;28;20329;-61
2023/01/11 04:49:40;;;;;;;17.23;4.67;;;9.70;99.90;;;;;;5029356;28;20479;-61
2023/01/11 04:52:07;;;;;;;22.67;5.63;;;;;;;;;;5051936;28;21013;-62
2023/01/11 04:54:35;;;;;;;27.97;5.10;;;9.50;99.90;;;;;;5060600;28;20485;-61
2023/01/11 04:57:02;;;;;;;30.53;5.40;;;;;;;;;;5044157;28;21071;-61
2023/01/11 04:59:29;;;;;;;31.93;5.70;;;9.60;99.90;;;;;;5063294;28;20482;-61
2023/01/11 05:01:55;;;;;;;16.23;4.47;;;9.50;99.90;;;;;;5001798;28;20506;-61
2023/01/11 05:04:22;;;;;;;25.83;7.83;;;9.60;99.90;;;;;;5027846;28;20569;-61
2023/01/11 05:06:49;;;;;;;18.63;4.50;;;9.70;99.90;;;;;;5076906;28;20485;-61
2023/01/11 05:09:17;;;;;;;30.13;9.50;;;9.70;99.90;;;;;;5030168;28;20488;-61
2023/01/11 05:11:45;;;;;;;25.53;6.87;;;;;;;;;;5048833;28;20539;-62
2023/01/11 05:14:13;;;;;;;30.83;7.07;;;;;;;;;;5041489;28;20493;-62
2023/01/11 05:16:39;;;;;;;25.77;5.50;;;9.60;99.90;;;;;;5070274;28;20493;-61
2023/01/11 05:19:06;;;;;;;24.47;5.33;;;13.00;99.90;;;;;;5048106;28;20483;-61
2023/01/11 05:21:38;;;;;;;25.13;6.73;;;9.50;99.90;;;;;;5044700;28;20547;-62
2023/01/11 05:24:05;;;;;;;23.20;5.17;;;;;;;;;;5025096;28;20483;-61
2023/01/11 05:26:33;;;;;;;28.83;6.60;;;;;;;;;;5045844;28;20475;-61
2023/01/11 05:29:03;;;;;;;21.83;5.03;;;9.50;99.90;;;;;;5055737;28;20854;-61
2023/01/11 05:31:31;;;;;;;36.03;5.20;;;9.50;99.90;;;;;;5035492;28;20487;-62
2023/01/11 05:33:59;;;;;;;29.90;5.17;;;9.60;99.90;;;;;;5008652;28;20818;-61
2023/01/11 05:36:27;;;;;;;33.50;6.60;;;9.50;99.90;;;;;;5066908;28;20781;-61
2023/01/11 05:38:55;;;;;;;27.77;6.47;;;9.40;99.90;;;;;;5017156;28;21062;-61
2023/01/11 05:41:23;;;;;;;26.37;7.10;;;;;;;;;;5043699;28;20479;-61
2023/01/11 05:46:38;;;;;;;23.23;5.50;;;9.60;99.90;;;;;;5027014;28;20491;-61
2023/01/11 05:49:05;;;;;;;18.47;4.43;;;;;;;;;;5041516;28;20474;-61
2023/01/11 05:51:32;;;;;;;20.57;4.40;;;9.50;99.90;;;;;;5036145;28;20473;-61
2023/01/11 05:54:00;;;;;;;19.33;4.93;;;;;;;;;;5022337;28;20495;-61
2023/01/11 05:56:27;;;;;;;29.30;6.90;;;;;;;;;;5052930;28;20490;-61
2023/01/11 05:58:54;;;;;;;24.57;4.63;;;;;;;;;;5035724;28;20483;-61
2023/01/11 06:01:22;;;;;;;28.60;7.53;;;;;;;;;;5058099;28;20542;-61
2023/01/11 06:03:51;;;;;;;16.10;4.40;;;9.50;99.90;;;;;;5012726;28;20491;-61
2023/01/11 06:06:19;;;;;;;28.40;9.87;;;9.40;99.90;;;;;;5055617;28;20802;-61
2023/01/11 06:08:45;;;;;;;15.67;5.20;;;9.40;99.90;;;;;;5024713;28;20964;-61
2023/01/11 06:11:13;;;;;;;24.00;7.43;;;;;;;;;;5043799;28;20486;-61
2023/01/11 06:13:40;;;;;;;19.83;5.60;;;;;;;;;;5032653;28;20850;-61
2023/01/11 06:16:09;;;;;;;21.60;5.97;;;9.50;99.90;;;;;;5045893;28;20475;-61
2023/01/11 06:18:39;;;;;;;19.47;4.67;;;9.60;99.90;;;;;;5060024;28;20928;-61
2023/01/11 06:21:08;;;;;;;24.97;5.47;;;9.70;99.90;;;;;;5005857;28;20499;-62
2023/01/11 06:23:36;;;;;;;16.10;4.90;;;9.50;99.90;;;;;;5051275;28;20743;-62
2023/01/11 06:26:04;;;;;;;21.10;4.47;;;9.60;99.90;;;;;;5045664;27;20473;-61
2023/01/11 06:28:31;;;;;;;28.27;5.23;;;9.60;99.90;;;;;;5030466;27;20475;-61
2023/01/11 06:31:00;;;;;;;28.10;6.03;;;9.60;99.90;;;;;;5011539;28;20913;-62
2023/01/11 06:33:28;;;;;;;26.23;5.53;;;;;;;;;;5053998;28;20485;-61
2023/01/11 06:35:56;;;;;;;16.60;4.03;;;;;;;;;;5070470;28;20481;-61
2023/01/11 06:38:25;;;;;;;32.37;7.60;;;9.70;99.90;;;;;;5018914;28;20500;-61
2023/01/11 06:40:54;;;;;;;23.13;5.07;;;9.60;99.90;;;;;;5025155;28;20493;-62
2023/01/11 06:43:22;;;;;;;34.00;7.10;;;9.70;99.90;;;;;;5050247;28;20514;-62
2023/01/11 06:45:49;;;;;;;12.80;3.50;;;9.70;99.90;;;;;;5058241;28;20564;-61
2023/01/11 06:48:16;;;;;;;26.80;7.60;;;9.80;99.90;;;;;;5019259;28;20485;-61
2023/01/11 06:50:43;;;;;;;53.70;11.77;;;9.90;99.90;;;;;;5041441;28;20864;-61
2023/01/11 06:53:10;;;;;;;19.93;5.00;;;9.80;99.90;;;;;;5059924;28;20485;-62
2023/01/11 06:55:38;;;;;;;26.30;4.47;;;8.70;99.90;;;;;;5055783;28;20485;-62
2023/01/11 06:58:04;;;;;;;17.03;4.07;;;9.80;99.90;;;;;;5040143;28;20485;-61
2023/01/11 07:00:32;;;;;;;48.47;10.47;;;;;;;;;;5035964;28;20496;-62
2023/01/11 07:03:01;;;;;;;23.07;4.47;;;9.90;99.90;;;;;;5017416;28;20572;-61
2023/01/11 07:05:28;;;;;;;21.03;3.80;;;9.90;99.90;;;;;;5044406;28;20491;-61
2023/01/11 07:07:55;;;;;;;25.97;5.33;;;9.90;99.90;;;;;;5041875;27;20923;-61
2023/01/11 07:10:22;;;;;;;46.53;10.67;;;10.00;99.90;;;;;;5034813;27;20709;-61
2023/01/11 07:12:50;;;;;;;21.83;4.30;;;10.00;99.90;;;;;;5026906;28;20472;-62
2023/01/11 07:15:17;;;;;;;46.00;10.03;;;9.90;99.90;;;;;;5013228;28;20483;-61
2023/01/11 07:17:46;;;;;;;19.00;5.47;;;10.00;99.90;;;;;;5037515;28;20476;-62
2023/01/11 07:20:14;;;;;;;33.47;8.20;;;;;;;;;;5023976;28;20496;-61
2023/01/11 07:22:40;;;;;;;21.87;5.50;;;10.10;99.90;;;;;;5019522;28;20497;-61
2023/01/11 07:25:08;;;;;;;26.40;6.87;;;10.00;99.90;;;;;;5046515;28;20473;-61
2023/01/11 07:27:34;;;;;;;23.93;6.67;;;10.00;99.90;;;;;;5068211;28;20608;-62
2023/01/11 07:30:03;;;;;;;22.43;5.93;;;10.00;99.90;;;;;;5060023;28;20481;-61
2023/01/11 07:32:30;;;;;;;16.47;3.87;;;10.10;99.90;;;;;;5037728;28;20479;-61
2023/01/11 07:34:56;;;;;;;12.00;3.63;;;9.90;99.90;;;;;;5037181;28;20884;-62
2023/01/11 07:37:24;;;;;;;39.80;7.53;;;10.10;99.90;;;;;;5028681;28;20494;-61
2023/01/11 07:39:51;;;;;;;17.33;5.53;;;;;;;;;;5012323;28;20581;-62
2023/01/11 07:45:05;;;;;;;18.33;4.83;;;;;;;;;;5040519;28;20477;-61
2023/01/11 07:47:32;;;;;;;27.30;5.03;;;10.10;99.90;;;;;;5035613;28;20484;-61
2023/01/11 07:49:58;;;;;;;19.70;3.87;;;10.20;99.90;;;;;;5057121;28;20479;-61
2023/01/11 07:52:25;;;;;;;32.60;8.10;;;10.30;99.90;;;;;;4992444;28;20509;-61
2023/01/11 07:54:52;;;;;;;12.13;3.70;;;10.20;99.90;;;;;;5077330;28;20537;-61
2023/01/11 07:57:18;;;;;;;24.87;6.20;;;10.40;99.90;;;;;;4991893;28;20505;-61
2023/01/11 07:59:45;;;;;;;19.00;4.27;;;10.30;99.90;;;;;;5057228;28;20482;-60
2023/01/11 08:02:13;;;;;;;20.73;5.40;;;10.20;99.90;;;;;;5014151;28;20474;-62
2023/01/11 08:04:40;;;;;;;19.03;4.23;;;;;;;;;;5005469;28;20553;-62
2023/01/11 08:07:07;;;;;;;18.33;4.27;;;10.30;99.90;;;;;;5043359;28;20957;-61
2023/01/11 08:09:33;;;;;;;22.83;4.93;;;10.40;99.90;;;;;;5009987;28;20514;-61
2023/01/11 08:14:44;;;;;;;15.10;4.50;;;10.40;99.90;;;;;;5031018;28;20500;-61
2023/01/11 08:17:14;;;;;;;15.30;5.50;;;10.40;99.90;;;;;;5049409;28;20475;-61
2023/01/11 08:19:41;;;;;;;20.33;4.03;;;;;;;;;;5060320;28;21028;-62
2023/01/11 08:22:09;;;;;;;16.10;4.30;;;;;;;;;;5024444;28;20540;-61
2023/01/11 08:24:36;;;;;;;23.67;4.00;;;;;;;;;;5060427;28;20477;-61
2023/01/11 08:27:03;;;;;;;24.73;5.33;;;;;;;;;;5020328;28;20538;-61
2023/01/11 08:29:29;;;;;;;20.50;5.50;;;10.50;99.90;;;;;;5022747;28;20491;-62
2023/01/11 08:31:58;;;;;;;15.90;2.80;;;10.40;99.90;;;;;;5063998;28;20491;-61
2023/01/11 08:34:27;;;;;;;15.17;5.00;;;;;;;;;;5015534;28;20517;-62
2023/01/11 08:36:55;;;;;;;17.77;3.97;;;10.60;99.90;;;;;;5046854;28;21048;-61
2023/01/11 08:39:22;;;;;;;19.23;5.03;;;10.60;99.90;;;;;;5035263;28;20573;-62
2023/01/11 08:41:48;;;;;;;13.60;3.87;;;10.60;99.90;;;;;;5002441;28;20483;-62
2023/01/11 08:44:16;;;;;;;28.13;9.23;;;10.70;99.90;;;;;;5018729;28;20497;-62
2023/01/11 08:46:42;;;;;;;21.80;4.43;;;10.70;99.90;;;;;;5050365;28;20576;-61
2023/01/11 08:49:11;;;;;;;23.10;6.97;;;10.70;99.90;;;;;;5025926;28;20826;-61
2023/01/11 08:51:39;;;;;;;11.83;2.97;;;10.70;99.90;;;;;;5062240;28;20505;-61
2023/01/11 08:54:08;;;;;;;17.27;3.30;;;10.70;99.90;;;;;;5012474;28;20491;-61
2023/01/11 08:56:35;;;;;;;18.93;3.13;;;10.70;99.90;;;;;;5023681;28;20983;-61
2023/01/11 08:59:02;;;;;;;15.53;4.30;;;10.80;99.90;;;;;;5025200;28;20600;-61
2023/01/11 09:01:29;;;;;;;23.07;4.77;;;10.80;99.90;;;;;;5048858;28;20476;-61
2023/01/11 09:03:56;;;;;;;21.00;4.23;;;10.80;99.90;;;;;;5049281;28;20485;-61
2023/01/11 09:06:23;;;;;;;18.20;6.40;;;10.80;99.90;;;;;;5036319;28;20483;-61
2023/01/11 09:08:51;;;;;;;18.47;2.77;;;10.80;99.90;;;;;;5049837;28;20492;-62
2023/01/11 09:14:02;;;;;;;16.07;4.33;;;10.80;99.90;;;;;;5010896;28;20486;-63
2023/01/11 09:16:29;;;;;;;18.63;5.53;;;;;;;;;;5063274;28;20478;-63
2023/01/11 09:18:56;;;;;;;14.57;4.10;;;10.80;99.90;;;;;;5052657;28;20494;-62
2023/01/11 09:21:23;;;;;;;16.63;4.70;;;;;;;;;;5035962;28;20553;-62
2023/01/11 09:23:51;;;;;;;10.93;3.63;;;10.60;99.90;;;;;;5038842;28;20834;-62
2023/01/11 09:26:18;;;;;;;24.67;8.07;;;;;;;;;;5046639;28;20491;-63
2023/01/11 09:28:44;;;;;;;30.67;5.03;;;10.90;99.90;;;;;;5025402;28;20493;-63
2023/01/11 09:31:11;;;;;;;13.40;4.27;;;10.80;99.90;;;;;;5011210;28;20498;-63
2023/01/11 09:33:38;;;;;;;13.83;3.63;;;10.90;99.90;;;;;;5026218;28;20471;-63
2023/01/11 09:36:05;;;;;;;23.30;4.90;;;10.90;99.90;;;;;;5041041;28;20558;-63
2023/01/11 09:38:32;;;;;;;13.50;4.23;;;10.90;99.90;;;;;;5069910;28;20712;-63
2023/01/11 09:41:11;;;;;;;24.13;5.73;;;10.90;99.90;;;;;;5019720;28;20519;-62
2023/01/11 09:43:49;;;;;;;17.20;3.67;;;10.90;99.90;;;;;;5055753;28;20485;-63
2023/01/11 09:46:18;;;;;;;18.20;6.63;;;11.00;99.90;;;;;;5016289;28;20532;-62
2023/01/11 09:48:47;;;;;;;24.87;4.07;;;10.90;99.90;;;;;;5056006;28;20485;-61
2023/01/11 09:51:17;;;;;;;19.97;6.97;;;10.80;99.90;;;;;;5048924;28;20491;-61
2023/01/11 09:53:49;;;;;;;14.17;3.60;;;10.90;99.90;;;;;;5061608;28;20490;-62
2023/01/11 09:56:24;;;;;;;24.77;9.00;;;11.00;99.90;;;;;;5041561;27;20526;-62
2023/01/11 09:59:00;;;;;;;15.53;3.60;;;;;;;;;;5036974;28;21013;-61
2023/01/11 10:01:37;;;;;;;19.30;4.23;;;10.90;99.90;;;;;;5018954;28;20541;-61
2023/01/11 10:04:35;;;;;;;15.13;3.80;;;11.00;99.90;;;;;;5013679;28;20498;-62
2023/01/11 10:07:21;;;;;;;16.90;4.27;;;;;;;;;;5013885;28;21235;-62
2023/01/11 10:09:52;;;;;;;17.63;2.93;;;;;;;;;;5059113;28;20486;-61
2023/01/11 10:12:36;;;;;;;18.77;6.03;;;11.00;99.90;;;;;;5053902;28;20538;-62
2023/01/11 10:15:11;;;;;;;18.03;3.87;;;;;;;;;;5043016;28;20473;-62
2023/01/11 10:17:47;;;;;;;32.00;12.97;;;11.00;99.90;;;;;;5040813;28;20580;-63
2023/01/11 10:20:23;;;;;;;15.67;3.33;;;11.00;99.90;;;;;;5025888;28;20537;-62
2023/01/11 10:22:52;;;;;;;16.10;4.60;;;11.10;99.90;;;;;;5012557;28;20591;-62
2023/01/11 10:25:25;;;;;;;18.40;6.00;;;11.10;99.90;;;;;;5025571;28;20491;-61
2023/01/11 10:27:59;;;;;;;14.73;3.87;;;11.10;99.90;;;;;;5032696;28;20490;-61
2023/01/11 10:30:47;;;;;;;19.50;5.90;;;11.20;99.90;;;;;;5031668;28;20495;-62
2023/01/11 10:33:33;;;;;;;19.50;5.10;;;11.10;99.90;;;;;;5047040;28;20491;-60
2023/01/11 10:36:17;;;;;;;15.30;3.37;;;11.20;99.90;;;;;;5032283;28;20487;-61
2023/01/11 10:39:06;;;;;;;17.10;4.00;;;11.20;99.90;;;;;;5052630;28;20486;-62
2023/01/11 10:41:40;;;;;;;9.10;2.90;;;11.20;99.90;;;;;;5029119;28;20474;-61
2023/01/11 10:44:18;;;;;;;21.00;6.43;;;11.40;99.90;;;;;;5042903;28;20483;-61
2023/01/11 10:46:48;;;;;;;13.40;4.13;;;11.50;99.90;;;;;;5019075;28;20479;-62
2023/01/11 10:49:37;;;;;;;22.20;8.00;;;;;;;;;;5032566;28;21015;-62
2023/01/11 10:52:14;;;;;;;18.73;5.13;;;11.60;99.90;;;;;;5028225;28;20598;-62
2023/01/11 10:54:44;;;;;;;19.80;3.77;;;;;;;;;;5034408;28;20498;-62
2023/01/11 10:57:19;;;;;;;13.20;4.63;;;11.70;99.90;;;;;;5041883;28;20486;-62
2023/01/11 11:00:20;;;;;;;17.93;4.83;;;11.70;99.90;;;;;;5061753;28;20489;-62
2023/01/11 11:03:23;;;;;;;12.83;3.63;;;11.70;99.90;;;;;;5043479;28;20487;-62
2023/01/11 11:05:59;;;;;;;10.80;2.93;;;11.70;99.90;;;;;;5007457;28;20580;-61
2023/01/11 11:08:28;;;;;;;14.87;3.93;;;;;;;;;;5069390;28;20547;-62
2023/01/11 11:11:00;;;;;;;15.40;5.17;;;11.70;99.90;;;;;;5025895;28;20497;-62
2023/01/11 11:13:39;;;;;;;19.50;5.87;;;11.70;99.90;;;;;;5061854;28;20469;-62
2023/01/11 11:16:54;;;;;;;20.33;3.50;;;11.70;99.90;;;;;;5009836;28;20869;-62
2023/01/11 11:19:26;;;;;;;20.70;7.53;;;11.60;99.90;;;;;;5059684;28;21626;-62
2023/01/11 11:21:53;;;;;;;9.90;3.00;;;;;;;;;;5033537;28;20488;-61
2023/01/11 11:24:26;;;;;;;19.70;4.13;;;11.60;99.90;;;;;;5038715;28;20475;-61
2023/01/11 11:26:57;;;;;;;11.70;2.40;;;;;;;;;;5060161;28;20487;-61
2023/01/11 11:29:29;;;;;;;18.00;5.50;;;11.50;99.90;;;;;;5020787;28;20552;-62
2023/01/11 11:31:59;;;;;;;10.47;3.00;;;11.60;99.90;;;;;;5034695;28;20491;-62
2023/01/11 11:34:27;;;;;;;15.23;4.53;;;11.70;99.90;;;;;;5049937;28;20501;-61
2023/01/11 11:36:57;;;;;;;22.67;4.30;;;11.70;99.90;;;;;;5019444;28;20509;-61
2023/01/11 11:39:27;;;;;;;18.10;5.87;;;;;;;;;;5066016;28;20495;-61
2023/01/11 11:41:56;;;;;;;11.40;4.57;;;11.70;99.90;;;;;;5039794;28;20490;-61
2023/01/11 11:44:24;;;;;;;27.67;7.83;;;11.70;99.90;;;;;;5030036;27;20503;-61
2023/01/11 11:46:59;;;;;;;16.93;3.50;;;11.70;99.90;;;;;;5027441;28;20485;-61
2023/01/11 11:49:27;;;;;;;27.07;5.70;;;11.70;99.90;;;;;;5039280;28;20926;-61
2023/01/11 11:51:55;;;;;;;14.90;3.40;;;11.80;99.90;;;;;;5050680;28;21131;-61
2023/01/11 11:54:26;;;;;;;23.77;7.43;;;11.80;99.90;;;;;;5046813;28;21001;-62
2023/01/11 11:56:55;;;;;;;18.37;4.37;;;11.70;99.90;;;;;;5051829;28;20562;-62
2023/01/11 11:59:25;;;;;;;21.40;5.60;;;11.80;99.90;;;;;;5042092;28;20470;-61
2023/01/11 12:02:00;;;;;;;17.33;4.10;;;11.90;99.90;;;;;;5028798;28;20478;-61
2023/01/11 12:04:40;;;;;;;15.10;5.03;;;11.80;99.90;;;;;;5051581;28;20476;-61
2023/01/11 12:07:13;;;;;;;22.40;4.47;;;11.90;99.90;;;;;;5003538;28;21396;-61
2023/01/11 12:09:42;;;;;;;12.27;4.17;;;;;;;;;;5046044;28;20482;-62
2023/01/11 12:12:15;;;;;;;18.77;6.23;;;;;;;;;;5005579;28;20509;-61
2023/01/11 12:14:42;;;;;;;19.87;5.57;;;11.90;99.90;;;;;;5014270;28;20494;-61
2023/01/11 12:17:23;;;;;;;19.10;5.30;;;12.00;99.90;;;;;;5035668;28;20528;-61
2023/01/11 12:19:50;;;;;;;15.57;3.70;;;;;;;;;;5033275;28;20480;-61
2023/01/11 12:22:18;;;;;;;19.53;5.90;;;;;;;;;;5073296;28;20490;-62
2023/01/11 12:24:46;;;;;;;13.10;4.47;;;12.20;99.90;;;;;;5026071;28;21064;-62
2023/01/11 12:27:20;;;;;;;16.30;4.63;;;;;;;;;;5046044;28;20948;-62
2023/01/11 12:29:51;;;;;;;17.93;4.23;;;;;;;;;;5004598;28;20486;-61
2023/01/11 12:32:49;;;;;;;26.57;6.33;;;12.30;99.90;;;;;;5051903;28;20493;-62
2023/01/11 12:35:33;;;;;;;23.03;7.97;;;12.40;99.90;;;;;;5029267;28;20532;-61
2023/01/11 12:38:05;;;;;;;16.63;4.10;;;;;;;;;;5004748;28;21219;-61
2023/01/11 12:40:37;;;;;;;25.77;8.40;;;12.40;99.90;;;;;;5041093;28;20479;-62
2023/01/11 12:43:22;;;;;;;21.53;6.10;;;12.40;99.90;;;;;;5008979;28;20477;-61
2023/01/11 12:45:55;;;;;;;16.63;4.33;;;12.40;99.90;;;;;;5030149;28;20565;-62
2023/01/11 12:48:35;;;;;;;32.47;5.57;;;12.40;99.90;;;;;;5013385;28;20481;-62
2023/01/11 12:51:16;;;;;;;25.90;8.80;;;12.40;99.90;;;;;;4999829;28;20544;-61
2023/01/11 12:54:05;;;;;;;23.93;3.90;;;12.40;99.90;;;;;;5013592;28;20502;-62
2023/01/11 12:56:38;;;;;;;14.20;4.17;;;;;;;;;;5028053;28;20521;-62
2023/01/11 12:59:07;;;;;;;17.17;4.60;;;;;;;;;;5051235;28;20574;-62
2023/01/11 13:01:41;;;;;;;26.93;6.00;;;12.30;99.90;;;;;;5031974;28;20484;-63
2023/01/11 13:04:42;;;;;;;24.70;5.70;;;12.30;99.90;;;;;;5027606;28;20489;-63
2023/01/11 13:07:22;;;;;;;38.50;5.80;;;12.40;99.90;;;;;;5029839;28;20486;-63
2023/01/11 13:13:09;;;;;;;21.33;4.57;;;12.20;99.90;;;;;;5030025;28;20676;-63
2023/01/11 13:15:47;;;;;;;27.43;3.93;;;12.30;99.90;;;;;;5023344;28;20486;-62
2023/01/11 13:18:43;;;;;;;26.73;6.40;;;;;;;;;;5036119;28;20481;-62
2023/01/11 13:21:25;;;;;;;23.83;6.30;;;;;;;;;;5016502;28;20571;-63
2023/01/11 13:23:54;;;;;;;25.17;5.67;;;;;;;;;;5039074;28;20483;-62
2023/01/11 13:26:24;;;;;;;37.60;7.17;;;12.50;99.90;;;;;;5048462;28;20594;-62
2023/01/11 13:28:57;;;;;;;20.47;3.67;;;12.10;99.90;;;;;;5031687;28;20499;-62
2023/01/11 13:31:24;;;;;;;29.97;6.50;;;12.00;99.90;;;;;;5027426;28;20588;-62
2023/01/11 13:33:57;;;;;;;18.23;6.07;;;12.00;99.90;;;;;;5045492;28;20484;-62
2023/01/11 13:36:29;;;;;;;23.93;6.87;;;12.00;99.90;;;;;;5018988;28;20487;-62
2023/01/11 13:39:00;;;;;;;24.20;8.40;;;11.90;99.90;;;;;;5039025;28;20895;-62
2023/01/11 13:41:32;;;;;;;38.20;10.13;;;12.00;99.90;;;;;;5009455;28;20471;-62
2023/01/11 13:44:03;;;;;;;26.60;4.77;;;11.90;99.90;;;;;;5054060;28;20466;-62
2023/01/11 13:46:49;;;;;;;23.73;6.83;;;11.90;99.90;;;;;;5018443;28;20500;-62
2023/01/11 13:49:21;;;;;;;43.20;8.43;;;;;;;;;;5023241;28;20550;-62
2023/01/11 13:51:55;;;;;;;31.63;5.77;;;11.90;99.90;;;;;;5059150;28;20546;-62
2023/01/11 13:54:27;;;;;;;35.93;9.47;;;;;;;;;;5029886;28;20556;-62